createdAt,value
2023-04-08T00:02:56.317Z,95346.81
2023-04-08T00:05:57.992Z,95349.56
2023-04-08T00:09:00.901Z,95350.09
2023-04-08T00:12:02.604Z,95353.34
2023-04-08T00:15:04.449Z,95353.03
2023-04-08T00:18:06.980Z,95357.25
2023-04-08T00:21:08.570Z,95354.81
2023-04-08T00:24:11.461Z,95354.81
2023-04-08T00:27:13.005Z,95351.47
2023-04-08T00:30:14.517Z,95350.88
2023-04-08T00:33:16.204Z,95355.22
2023-04-08T00:36:17.779Z,95352.34
2023-04-08T00:39:20.715Z,95355.28
2023-04-08T00:42:22.300Z,95351.38
2023-04-08T00:45:23.816Z,95356.84
2023-04-08T00:48:25.367Z,95360.81
2023-04-08T00:51:26.934Z,95362.09
2023-04-08T00:54:30.589Z,95362.63
2023-04-08T00:57:32.241Z,95356.28
2023-04-08T01:00:35.292Z,95353.81
2023-04-08T01:03:42.432Z,95356.56
2023-04-08T01:06:49.404Z,95360.13
2023-04-08T01:09:54.357Z,95348.50
2023-04-08T01:12:57.262Z,95348.09
2023-04-08T01:15:59.111Z,95354.31
2023-04-08T01:19:00.949Z,95351.06
2023-04-08T01:22:05.669Z,95346.66
2023-04-08T01:25:10.669Z,95347.19
2023-04-08T01:28:15.458Z,95342.31
2023-04-08T01:31:17.270Z,95342.09
2023-04-08T01:34:22.011Z,95338.03
2023-04-08T01:37:24.962Z,95336.31
2023-04-08T01:40:26.602Z,95335.94
2023-04-08T01:43:29.694Z,95331.47
2023-04-08T01:46:32.116Z,95332.84
2023-04-08T01:49:33.977Z,95333.19
2023-04-08T01:52:35.810Z,95327.16
2023-04-08T01:55:38.586Z,95323.44
2023-04-08T01:58:42.985Z,95321.03
2023-04-08T02:01:45.049Z,95325.78
2023-04-08T02:04:46.733Z,95322.81
2023-04-08T02:07:48.542Z,95325.16
2023-04-08T02:10:50.048Z,95323.00
2023-04-08T02:13:53.369Z,95325.44
2023-04-08T02:16:56.357Z,95330.59
2023-04-08T02:20:00.943Z,95326.94
2023-04-08T02:23:05.786Z,95321.84
2023-04-08T02:26:08.312Z,95328.34
2023-04-08T02:29:12.461Z,95327.31
2023-04-08T02:32:15.026Z,95328.06
2023-04-08T02:35:17.396Z,95339.28
2023-04-08T02:38:19.266Z,95330.38
2023-04-08T02:41:20.781Z,95336.25
2023-04-08T02:44:23.748Z,95334.69
2023-04-08T02:47:25.402Z,95337.09
2023-04-08T02:50:27.008Z,95330.75
2023-04-08T02:53:28.548Z,95335.63
2023-04-08T02:56:30.126Z,95329.63
2023-04-08T02:59:33.041Z,95331.88
2023-04-08T03:02:34.729Z,95339.66
2023-04-08T03:05:36.366Z,95335.75
2023-04-08T03:08:37.990Z,95339.50
2023-04-08T03:11:39.599Z,95339.84
2023-04-08T03:14:42.532Z,95342.91
2023-04-08T03:17:44.170Z,95342.81
2023-04-08T03:20:45.771Z,95340.41
2023-04-08T03:23:47.302Z,95346.19
2023-04-08T03:26:48.930Z,95346.16
2023-04-08T03:29:51.885Z,95349.44
2023-04-08T03:32:53.621Z,95348.50
2023-04-08T03:35:55.295Z,95350.75
2023-04-08T03:38:56.866Z,95345.94
2023-04-08T03:41:58.380Z,95357.16
2023-04-08T03:45:01.261Z,95352.19
2023-04-08T03:48:02.961Z,95357.38
2023-04-08T03:51:04.496Z,95367.03
2023-04-08T03:54:06.036Z,95362.16
2023-04-08T03:57:07.578Z,95364.97
2023-04-08T04:00:11.288Z,95369.47
2023-04-08T04:03:13.033Z,95378.66
2023-04-08T04:06:14.878Z,95381.41
2023-04-08T04:09:16.427Z,95387.53
2023-04-08T04:12:17.934Z,95388.56
2023-04-08T04:15:20.813Z,95395.75
2023-04-08T04:18:22.335Z,95403.44
2023-04-08T04:21:23.848Z,95412.25
2023-04-08T04:24:25.353Z,95408.00
2023-04-08T04:27:26.901Z,95408.00
2023-04-08T04:30:29.846Z,95408.97
2023-04-08T04:33:31.556Z,95414.84
2023-04-08T04:36:33.163Z,95407.94
2023-04-08T04:39:34.720Z,95408.53
2023-04-08T04:42:36.414Z,95410.22
2023-04-08T04:45:39.316Z,95410.16
2023-04-08T04:48:41.076Z,95420.63
2023-04-08T04:51:42.631Z,95422.72
2023-04-08T04:54:44.309Z,95422.63
2023-04-08T04:57:45.803Z,95426.75
2023-04-08T05:00:48.738Z,95427.88
2023-04-08T05:03:50.249Z,95432.31
2023-04-08T05:06:52.118Z,95430.81
2023-04-08T05:09:53.882Z,95432.31
2023-04-08T05:12:55.422Z,95430.66
2023-04-08T05:15:58.360Z,95435.31
2023-04-08T05:19:00.006Z,95441.78
2023-04-08T05:22:01.566Z,95437.38
2023-04-08T05:25:03.139Z,95453.00
2023-04-08T05:28:04.650Z,95444.38
2023-04-08T05:31:07.625Z,95451.72
2023-04-08T05:34:09.175Z,95457.00
2023-04-08T05:37:10.827Z,95454.75
2023-04-08T05:40:12.482Z,95478.44
2023-04-08T05:43:14.054Z,95477.13
2023-04-08T05:46:17.017Z,95478.16
2023-04-08T05:49:18.625Z,95480.59
2023-04-08T05:52:20.185Z,95483.88
2023-04-08T05:55:21.803Z,95491.81
2023-04-08T05:58:23.306Z,95484.56
2023-04-08T06:01:26.211Z,95491.91
2023-04-08T06:04:27.767Z,95490.44
2023-04-08T06:07:29.588Z,95499.66
2023-04-08T06:10:31.129Z,95493.81
2023-04-08T06:13:32.695Z,95497.00
2023-04-08T06:16:35.687Z,95495.84
2023-04-08T06:19:37.184Z,95498.31
2023-04-08T06:22:38.704Z,95500.53
2023-04-08T06:25:40.238Z,95501.03
2023-04-08T06:28:41.859Z,95507.25
2023-04-08T06:31:44.917Z,95504.06
2023-04-08T06:34:46.481Z,95505.53
2023-04-08T06:37:48.058Z,95512.22
2023-04-08T06:40:49.605Z,95511.09
2023-04-08T06:43:51.148Z,95514.16
2023-04-08T06:46:54.167Z,95519.97
2023-04-08T06:49:55.715Z,95516.25
2023-04-08T06:52:57.240Z,95520.09
2023-04-08T06:55:58.822Z,95526.50
2023-04-08T06:59:00.394Z,95525.63
2023-04-08T07:02:03.696Z,95535.28
2023-04-08T07:05:06.003Z,95532.28
2023-04-08T07:08:07.639Z,95532.44
2023-04-08T07:11:09.228Z,95533.03
2023-04-08T07:14:11.764Z,95544.19
2023-04-08T07:17:15.129Z,95544.06
2023-04-08T07:20:17.102Z,95544.84
2023-04-08T07:23:19.002Z,95546.75
2023-04-08T07:26:20.572Z,95543.16
2023-04-08T07:29:22.065Z,95546.41
2023-04-08T07:32:25.061Z,95540.59
2023-04-08T07:35:26.755Z,95542.28
2023-04-08T07:38:28.566Z,95543.38
2023-04-08T07:41:30.092Z,95546.41
2023-04-08T07:44:31.771Z,95554.97
2023-04-08T07:47:34.778Z,95561.97
2023-04-08T07:50:36.583Z,95562.13
2023-04-08T07:53:58.103Z,95561.88
2023-04-08T07:57:02.064Z,95566.88
2023-04-08T08:00:03.733Z,95566.97
2023-04-08T08:03:06.758Z,95570.69
2023-04-08T08:06:08.313Z,95570.56
2023-04-08T08:09:09.861Z,95577.66
2023-04-08T08:12:11.399Z,95575.34
2023-04-08T08:15:12.982Z,95577.34
2023-04-08T08:18:16.038Z,95574.56
2023-04-08T08:21:17.573Z,95574.91
2023-04-08T08:24:19.140Z,95577.47
2023-04-08T08:27:20.701Z,95582.59
2023-04-08T08:30:22.350Z,95585.94
2023-04-08T08:33:25.826Z,95579.69
2023-04-08T08:36:27.455Z,95591.94
2023-04-08T08:39:29.023Z,95595.84
2023-04-08T08:42:31.437Z,95587.91
2023-04-08T08:45:33.797Z,95596.03
2023-04-08T08:48:36.804Z,95601.50
2023-04-08T08:51:40.076Z,95606.06
2023-04-08T08:54:41.661Z,95609.75
2023-04-08T08:57:43.272Z,95609.88
2023-04-08T09:00:44.846Z,95608.53
2023-04-08T09:04:06.483Z,95613.53
2023-04-08T09:07:11.580Z,95619.56
2023-04-08T09:10:13.128Z,95616.00
2023-04-08T09:13:14.640Z,95623.66
2023-04-08T09:16:16.606Z,95622.09
2023-04-08T09:19:19.843Z,95621.00
2023-04-08T09:22:21.433Z,95620.88
2023-04-08T09:25:23.437Z,95615.31
2023-04-08T09:28:25.047Z,95623.31
2023-04-08T09:31:27.476Z,95624.22
2023-04-08T09:34:30.513Z,95624.56
2023-04-08T09:37:32.101Z,95631.34
2023-04-08T09:40:34.761Z,95629.69
2023-04-08T09:43:40.940Z,95631.25
2023-04-08T09:46:47.574Z,95625.91
2023-04-08T09:49:53.847Z,95627.44
2023-04-08T09:53:00.779Z,95631.91
2023-04-08T09:56:04.146Z,95634.03
2023-04-08T09:59:09.822Z,95636.69
2023-04-08T10:02:11.595Z,95635.47
2023-04-08T10:05:14.950Z,95633.78
2023-04-08T10:08:16.565Z,95629.41
2023-04-08T10:11:18.382Z,95638.16
2023-04-08T10:14:19.954Z,95640.94
2023-04-08T10:17:24.813Z,95639.38
2023-04-08T10:20:43.621Z,95641.22
2023-04-08T10:23:55.054Z,95649.16
2023-04-08T10:26:56.700Z,95653.41
2023-04-08T10:29:58.246Z,95638.00
2023-04-08T10:33:00.375Z,95645.56
2023-04-08T10:36:10.642Z,95637.56
2023-04-08T10:39:13.357Z,95647.91
2023-04-08T10:42:14.936Z,95648.44
2023-04-08T10:45:16.748Z,95648.13
2023-04-08T10:48:18.997Z,95647.34
2023-04-08T10:51:22.370Z,95658.03
2023-04-08T10:54:23.892Z,95650.72
2023-04-08T10:57:25.443Z,95651.00
2023-04-08T11:00:33.113Z,95650.72
2023-04-08T11:03:35.484Z,95653.94
2023-04-08T11:06:38.831Z,95652.13
2023-04-08T11:09:40.384Z,95656.38
2023-04-08T11:12:42.047Z,95650.00
2023-04-08T11:15:43.632Z,95648.16
2023-04-08T11:18:45.252Z,95653.16
2023-04-08T11:21:48.223Z,95647.81
2023-04-08T11:24:49.865Z,95646.00
2023-04-08T11:27:51.471Z,95654.69
2023-04-08T11:30:54.170Z,95659.16
2023-04-08T11:33:55.782Z,95657.13
2023-04-08T11:37:01.627Z,95661.41
2023-04-08T11:40:06.400Z,95654.25
2023-04-08T11:43:11.493Z,95653.84
2023-04-08T11:46:13.178Z,95648.50
2023-04-08T11:49:14.806Z,95651.31
2023-04-08T11:52:17.772Z,95655.69
2023-04-08T11:55:23.410Z,95655.50
2023-04-08T11:58:24.929Z,95654.59
2023-04-08T12:01:26.850Z,95657.03
2023-04-08T12:04:28.466Z,95653.63
2023-04-08T12:07:31.462Z,95656.94
2023-04-08T12:10:33.094Z,95661.63
2023-04-08T12:13:34.614Z,95655.91
2023-04-08T12:16:36.259Z,95659.75
2023-04-08T12:19:38.685Z,95666.41
2023-04-08T12:22:41.650Z,95661.03
2023-04-08T12:25:43.188Z,95670.47
2023-04-08T12:28:44.752Z,95660.69
2023-04-08T12:31:46.421Z,95660.38
2023-04-08T12:34:47.962Z,95667.38
2023-04-08T12:37:50.920Z,95665.84
2023-04-08T12:40:52.563Z,95668.75
2023-04-08T12:43:54.094Z,95665.06
2023-04-08T12:46:55.617Z,95664.03
2023-04-08T12:49:57.225Z,95663.69
2023-04-08T12:53:00.221Z,95669.22
2023-04-08T12:56:01.824Z,95666.00
2023-04-08T12:59:03.506Z,95665.63
2023-04-08T13:02:05.044Z,95667.69
2023-04-08T13:05:06.950Z,95666.09
2023-04-08T13:08:10.391Z,95667.19
2023-04-08T13:11:11.914Z,95665.16
2023-04-08T13:14:13.460Z,95668.91
2023-04-08T13:17:14.964Z,95667.38
2023-04-08T13:20:16.901Z,95660.88
2023-04-08T13:23:19.983Z,95665.00
2023-04-08T13:26:21.588Z,95667.69
2023-04-08T13:29:23.155Z,95673.94
2023-04-08T13:32:24.801Z,95671.78
2023-04-08T13:35:26.569Z,95673.50
2023-04-08T13:38:29.492Z,95670.69
2023-04-08T13:41:31.408Z,95675.94
2023-04-08T13:44:32.964Z,95677.84
2023-04-08T13:47:36.543Z,95679.97
2023-04-08T13:50:39.607Z,95682.78
2023-04-08T13:53:42.507Z,95676.41
2023-04-08T13:56:44.051Z,95673.94
2023-04-08T13:59:45.605Z,95683.75
2023-04-08T14:02:47.279Z,95681.47
2023-04-08T14:05:48.937Z,95682.78
2023-04-08T14:08:51.874Z,95687.56
2023-04-08T14:11:53.744Z,95687.44
2023-04-08T14:14:55.214Z,95686.16
2023-04-08T14:17:56.820Z,95693.72
2023-04-08T14:20:58.383Z,95694.56
2023-04-08T14:24:02.703Z,95690.06
2023-04-08T14:27:04.394Z,95698.56
2023-04-08T14:30:06.751Z,95699.44
2023-04-08T14:33:08.368Z,95701.03
2023-04-08T14:36:10.218Z,95706.91
2023-04-08T14:39:13.194Z,95701.47
2023-04-08T14:42:14.712Z,95701.38
2023-04-08T14:45:16.421Z,95697.41
2023-04-08T14:48:17.965Z,95704.84
2023-04-08T14:51:19.810Z,95695.03
2023-04-08T14:54:22.809Z,95702.16
2023-04-08T14:57:25.399Z,95699.94
2023-04-08T15:00:26.982Z,95704.84
2023-04-08T15:03:28.830Z,95706.47
2023-04-08T15:06:30.581Z,95710.44
2023-04-08T15:09:34.643Z,95710.63
2023-04-08T15:12:36.538Z,95716.97
2023-04-08T15:15:38.111Z,95717.34
2023-04-08T15:18:40.085Z,95721.03
2023-04-08T15:21:41.624Z,95720.94
2023-04-08T15:24:45.681Z,95726.81
2023-04-08T15:27:49.798Z,95728.59
2023-04-08T15:30:51.363Z,95723.69
2023-04-08T15:33:53.561Z,95729.38
2023-04-08T15:36:56.309Z,95731.25
2023-04-08T15:39:59.318Z,95735.69
2023-04-08T15:43:00.838Z,95746.94
2023-04-08T15:46:02.794Z,95747.03
2023-04-08T15:49:04.364Z,95747.03
2023-04-08T15:52:06.123Z,95741.72
2023-04-08T15:55:09.746Z,95749.75
2023-04-08T15:58:11.335Z,95749.84
2023-04-08T16:01:13.688Z,95746.50
2023-04-08T16:04:16.401Z,95759.00
2023-04-08T16:07:18.049Z,95759.16
2023-04-08T16:10:22.822Z,95767.41
2023-04-08T16:13:25.861Z,95768.31
2023-04-08T16:16:27.536Z,95767.19
2023-04-08T16:19:29.246Z,95770.75
2023-04-08T16:22:30.999Z,95778.47
2023-04-08T16:25:34.149Z,95774.69
2023-04-08T16:28:38.217Z,95779.13
2023-04-08T16:31:39.803Z,95779.47
2023-04-08T16:34:41.452Z,95785.06
2023-04-08T16:37:43.997Z,95789.88
2023-04-08T16:40:47.374Z,95795.75
2023-04-08T16:43:49.127Z,95801.38
2023-04-08T16:46:51.052Z,95794.44
2023-04-08T16:49:52.963Z,95804.38
2023-04-08T16:52:56.309Z,95803.69
2023-04-08T16:55:59.653Z,95801.28
2023-04-08T16:59:03.877Z,95810.84
2023-04-08T17:02:07.156Z,95811.06
2023-04-08T17:05:09.144Z,95812.72
2023-04-08T17:08:10.685Z,95815.63
2023-04-08T17:11:15.568Z,95827.47
2023-04-08T17:14:17.657Z,95832.25
2023-04-08T17:17:19.518Z,95837.75
2023-04-08T17:20:21.080Z,95837.09
2023-04-08T17:23:24.130Z,95834.53
2023-04-08T17:26:27.032Z,95844.00
2023-04-08T17:29:28.730Z,95844.91
2023-04-08T17:32:30.599Z,95856.19
2023-04-08T17:35:32.698Z,95856.41
2023-04-08T17:38:35.022Z,95858.97
2023-04-08T17:41:40.464Z,95859.88
2023-04-08T17:44:42.695Z,95863.88
2023-04-08T17:47:44.369Z,95862.75
2023-04-08T17:50:46.138Z,95876.72
2023-04-08T17:53:47.660Z,95878.38
2023-04-08T17:56:51.651Z,95885.19
2023-04-08T17:59:54.232Z,95881.50
2023-04-08T18:02:56.261Z,95885.28
2023-04-08T18:05:58.236Z,95886.31
2023-04-08T18:09:01.011Z,95889.09
2023-04-08T18:12:04.820Z,95894.09
2023-04-08T18:15:07.007Z,95904.03
2023-04-08T18:18:08.515Z,95904.72
2023-04-08T18:21:10.463Z,95912.19
2023-04-08T18:24:13.044Z,95911.63
2023-04-08T18:27:16.187Z,95917.19
2023-04-08T18:30:18.063Z,95915.63
2023-04-08T18:33:19.623Z,95923.34
2023-04-08T18:36:21.222Z,95924.56
2023-04-08T18:39:22.836Z,95933.16
2023-04-08T18:42:26.952Z,95927.13
2023-04-08T18:45:28.556Z,95931.81
2023-04-08T18:48:31.108Z,95934.06
2023-04-08T18:51:32.889Z,95940.72
2023-04-08T18:54:34.564Z,95932.25
2023-04-08T18:57:37.774Z,95953.34
2023-04-08T19:00:40.118Z,95951.78
2023-04-08T19:03:41.956Z,95956.44
2023-04-08T19:06:46.879Z,95956.53
2023-04-08T19:09:51.263Z,95954.78
2023-04-08T19:12:56.732Z,95960.13
2023-04-08T19:15:58.227Z,95967.91
2023-04-08T19:19:02.927Z,95967.16
2023-04-08T19:22:05.953Z,95975.59
2023-04-08T19:25:08.002Z,95969.84
2023-04-08T19:28:14.791Z,95977.41
2023-04-08T19:31:16.712Z,95977.09
2023-04-08T19:34:18.680Z,95975.41
2023-04-08T19:37:22.701Z,95982.66
2023-04-08T19:40:26.782Z,95986.78
2023-04-08T19:43:29.704Z,95987.66
2023-04-08T19:46:31.640Z,95986.97
2023-04-08T19:49:34.128Z,95995.44
2023-04-08T19:52:38.205Z,95987.66
2023-04-08T19:55:40.015Z,95988.06
2023-04-08T19:58:44.504Z,95998.38
2023-04-08T20:01:46.210Z,95995.97
2023-04-08T20:04:49.475Z,95990.81
2023-04-08T20:07:52.081Z,95991.25
2023-04-08T20:10:54.230Z,95995.84
2023-04-08T20:13:59.277Z,95996.53
2023-04-08T20:17:00.929Z,95990.78
2023-04-08T20:20:02.720Z,95997.25
2023-04-08T20:23:05.853Z,95994.53
2023-04-08T20:26:07.408Z,95999.28
2023-04-08T20:29:10.307Z,95998.94
2023-04-08T20:32:11.840Z,95996.16
2023-04-08T20:35:13.706Z,95990.81
2023-04-08T20:38:15.564Z,95997.38
2023-04-08T20:41:20.153Z,95989.16
2023-04-08T20:44:23.348Z,95987.81
2023-04-08T20:47:25.089Z,95988.41
2023-04-08T20:50:28.997Z,96000.22
2023-04-08T20:53:30.527Z,95990.69
2023-04-08T20:56:34.447Z,95999.94
2023-04-08T20:59:37.590Z,95995.78
2023-04-08T21:02:39.436Z,95999.50
2023-04-08T21:05:41.256Z,95998.00
2023-04-08T21:08:42.957Z,96008.09
2023-04-08T21:11:46.543Z,96003.41
2023-04-08T21:14:50.438Z,96009.75
2023-04-08T21:17:55.437Z,96009.81
2023-04-08T21:20:57.273Z,96005.56
2023-04-08T21:23:59.035Z,96003.28
2023-04-08T21:27:00.614Z,96005.03
2023-04-08T21:30:08.458Z,96012.53
2023-04-08T21:33:10.296Z,96011.75
2023-04-08T21:36:12.206Z,96008.94
2023-04-08T21:39:14.347Z,96011.50
2023-04-08T21:42:15.962Z,96012.09
2023-04-08T21:45:32.470Z,96013.66
2023-04-08T21:48:35.596Z,96017.09
2023-04-08T21:51:37.191Z,96012.47
2023-04-08T21:54:38.776Z,96011.19
2023-04-08T21:57:40.822Z,96013.81
2023-04-08T22:00:42.337Z,96008.59
2023-04-08T22:03:46.499Z,96007.13
2023-04-08T22:06:50.208Z,96011.63
2023-04-08T22:09:54.465Z,96015.28
2023-04-08T22:12:56.232Z,96008.69
2023-04-08T22:15:58.834Z,96004.16
2023-04-08T22:19:04.070Z,96003.81
2023-04-08T22:22:07.116Z,96008.31
2023-04-08T22:25:09.200Z,95999.22
2023-04-08T22:28:10.877Z,96001.13
2023-04-08T22:31:16.609Z,96003.69
2023-04-08T22:34:19.768Z,96001.94
2023-04-08T22:37:22.978Z,96003.75
2023-04-08T22:40:24.695Z,95997.91
2023-04-08T22:43:28.962Z,96009.88
2023-04-08T22:46:33.174Z,96005.72
2023-04-08T22:49:36.183Z,96000.63
2023-04-08T22:52:37.908Z,96004.72
2023-04-08T22:55:40.766Z,96005.53
2023-04-08T22:58:42.414Z,96008.38
2023-04-08T23:01:47.072Z,96002.41
2023-04-08T23:04:53.191Z,96004.69
2023-04-08T23:07:55.193Z,95999.50
2023-04-08T23:10:56.875Z,96004.34
2023-04-08T23:14:00.135Z,96007.66
2023-04-08T23:17:03.080Z,96007.22
2023-04-08T23:20:12.237Z,96010.69
2023-04-08T23:23:13.945Z,96011.97
2023-04-08T23:26:18.934Z,96006.69
2023-04-08T23:29:21.265Z,96010.69
2023-04-08T23:32:22.930Z,96005.19
2023-04-08T23:35:25.960Z,96010.94
2023-04-08T23:38:29.773Z,96008.25
2023-04-08T23:41:31.377Z,96008.31
2023-04-08T23:44:34.866Z,95998.28
2023-04-08T23:47:36.572Z,95992.34
2023-04-08T23:50:39.638Z,96004.47
2023-04-08T23:53:41.525Z,96005.91
2023-04-08T23:56:43.053Z,96004.78
2023-04-08T23:59:50.331Z,96004.78
